createdAt,value
2017-05-27T00:00:09.470Z,5.18
2017-05-27T00:02:36.844Z,4.84
2017-05-27T00:05:04.661Z,6.30
2017-05-27T00:07:32.065Z,5.74
2017-05-27T00:09:59.373Z,5.60
2017-05-27T00:12:27.836Z,7.74
2017-05-27T00:14:55.209Z,5.78
2017-05-27T00:17:22.548Z,6.24
2017-05-27T00:19:49.847Z,6.80
2017-05-27T00:22:17.202Z,5.78
2017-05-27T00:24:44.436Z,7.22
2017-05-27T00:27:11.753Z,5.66
2017-05-27T00:29:39.111Z,6.78
2017-05-27T00:32:06.617Z,5.76
2017-05-27T00:34:33.848Z,7.36
2017-05-27T00:37:01.146Z,5.90
2017-05-27T00:39:28.465Z,5.96
2017-05-27T00:41:55.928Z,5.36
2017-05-27T00:44:23.301Z,5.92
2017-05-27T00:46:51.609Z,5.48
2017-05-27T00:49:18.940Z,5.48
2017-05-27T00:51:46.277Z,5.80
2017-05-27T00:54:13.668Z,6.74
2017-05-27T00:56:41.170Z,7.08
2017-05-27T00:59:08.460Z,5.54
2017-05-27T01:01:35.697Z,6.46
2017-05-27T01:04:02.996Z,5.92
2017-05-27T01:06:30.454Z,5.70
2017-05-27T01:08:57.798Z,9.66
2017-05-27T01:11:24.991Z,6.72
2017-05-27T01:13:52.303Z,7.00
2017-05-27T01:16:19.637Z,5.66
2017-05-27T01:18:47.491Z,6.26
2017-05-27T01:21:14.846Z,5.78
2017-05-27T01:23:42.217Z,6.02
2017-05-27T01:26:09.644Z,6.44
2017-05-27T01:28:37.020Z,5.24
2017-05-27T01:31:04.325Z,6.32
2017-05-27T01:33:31.729Z,6.46
2017-05-27T01:35:59.060Z,7.10
2017-05-27T01:38:26.397Z,5.82
2017-05-27T01:40:53.805Z,6.38
2017-05-27T01:43:21.234Z,7.96
2017-05-27T01:45:48.657Z,6.30
2017-05-27T01:48:16.002Z,6.46
2017-05-27T01:50:43.417Z,6.12
2017-05-27T01:53:10.728Z,6.44
2017-05-27T01:55:38.001Z,7.02
2017-05-27T01:58:05.349Z,5.94
2017-05-27T02:00:32.721Z,6.76
2017-05-27T02:03:00.052Z,7.38
2017-05-27T02:05:27.504Z,7.10
2017-05-27T02:07:55.001Z,6.30
2017-05-27T02:10:22.349Z,6.20
2017-05-27T02:12:49.616Z,7.78
2017-05-27T02:15:16.890Z,7.20
2017-05-27T02:17:44.434Z,7.80
2017-05-27T02:20:11.873Z,10.32
2017-05-27T02:22:39.422Z,6.44
2017-05-27T02:25:06.651Z,7.70
2017-05-27T02:27:34.038Z,10.38
2017-05-27T02:30:01.394Z,7.46
2017-05-27T02:32:28.721Z,6.50
2017-05-27T02:34:56.070Z,7.90
2017-05-27T02:37:23.254Z,11.16
2017-05-27T02:39:50.576Z,6.94
2017-05-27T02:42:17.890Z,12.92
2017-05-27T02:44:45.248Z,7.92
2017-05-27T02:47:12.596Z,7.44
2017-05-27T02:49:39.201Z,6.68
2017-05-27T02:52:06.573Z,8.06
2017-05-27T02:54:34.080Z,8.12
2017-05-27T02:57:01.511Z,7.48
2017-05-27T02:59:28.873Z,9.74
2017-05-27T03:01:56.217Z,8.24
2017-05-27T03:04:23.433Z,8.08
2017-05-27T03:09:24.828Z,9.18
2017-05-27T03:11:52.184Z,8.22
2017-05-27T03:14:19.532Z,9.20
2017-05-27T03:16:46.876Z,8.36
2017-05-27T03:19:14.101Z,8.46
2017-05-27T03:21:41.434Z,10.92
2017-05-27T03:24:08.769Z,10.16
2017-05-27T03:26:36.101Z,8.74
2017-05-27T03:29:02.621Z,8.10
2017-05-27T03:31:29.945Z,8.72
2017-05-27T03:33:57.401Z,9.14
2017-05-27T03:36:24.708Z,10.70
2017-05-27T03:38:52.074Z,7.68
2017-05-27T03:41:19.432Z,7.14
2017-05-27T03:43:46.823Z,7.56
2017-05-27T03:46:14.269Z,6.98
2017-05-27T03:48:41.635Z,7.78
2017-05-27T03:51:08.978Z,9.92
2017-05-27T03:53:36.336Z,11.48
2017-05-27T03:56:03.701Z,6.34
2017-05-27T03:58:31.041Z,8.20
2017-05-27T04:00:58.244Z,6.44
2017-05-27T04:03:25.577Z,7.60
2017-05-27T04:05:53.250Z,8.82
2017-05-27T04:08:20.587Z,7.42
2017-05-27T04:10:48.198Z,8.52
2017-05-27T04:13:15.533Z,7.76
2017-05-27T04:15:42.943Z,9.16
2017-05-27T04:18:10.311Z,8.02
2017-05-27T04:20:37.624Z,12.52
2017-05-27T04:23:04.980Z,7.62
2017-05-27T04:25:32.227Z,8.24
2017-05-27T04:27:59.661Z,11.42
2017-05-27T04:30:27.048Z,8.74
2017-05-27T04:32:54.509Z,9.40
2017-05-27T04:35:21.798Z,8.78
2017-05-27T04:37:49.132Z,8.90
2017-05-27T04:40:16.452Z,10.10
2017-05-27T04:42:43.692Z,9.70
2017-05-27T04:45:11.048Z,9.10
2017-05-27T04:47:38.076Z,8.60
2017-05-27T04:50:05.409Z,8.74
2017-05-27T04:52:32.777Z,10.48
2017-05-27T04:55:00.101Z,12.32
2017-05-27T04:57:27.418Z,7.68
2017-05-27T04:59:54.733Z,10.02
2017-05-27T05:02:22.087Z,9.06
2017-05-27T05:04:49.437Z,8.96
2017-05-27T05:07:16.787Z,7.58
2017-05-27T05:09:44.114Z,9.58
2017-05-27T05:12:11.492Z,8.74
2017-05-27T05:14:38.732Z,8.02
2017-05-27T05:17:06.005Z,8.00
2017-05-27T05:19:33.321Z,9.80
2017-05-27T05:22:00.664Z,8.44
2017-05-27T05:24:28.201Z,7.40
2017-05-27T05:26:55.517Z,6.36
2017-05-27T05:29:22.845Z,6.64
2017-05-27T05:31:50.301Z,8.58
2017-05-27T05:34:17.654Z,6.78
2017-05-27T05:36:44.964Z,7.18
2017-05-27T05:39:12.293Z,6.38
2017-05-27T05:41:39.557Z,5.92
2017-05-27T05:44:06.954Z,5.82
2017-05-27T05:46:34.272Z,6.74
2017-05-27T05:49:01.740Z,6.34
2017-05-27T05:51:29.084Z,6.34
2017-05-27T05:53:56.354Z,8.14
2017-05-27T05:56:23.724Z,6.10
2017-05-27T05:58:52.708Z,5.94
2017-05-27T06:01:20.029Z,6.28
2017-05-27T06:03:47.347Z,6.32
2017-05-27T06:06:14.700Z,5.20
2017-05-27T06:08:42.049Z,7.90
2017-05-27T06:11:13.201Z,6.02
2017-05-27T06:13:40.496Z,6.18
2017-05-27T06:16:07.823Z,5.80
2017-05-27T06:18:35.151Z,5.82
2017-05-27T06:21:02.509Z,5.22
2017-05-27T06:23:29.769Z,5.80
2017-05-27T06:25:56.977Z,7.10
2017-05-27T06:28:24.710Z,4.50
2017-05-27T06:30:52.018Z,5.26
2017-05-27T06:33:20.001Z,4.98
2017-05-27T06:35:47.312Z,4.78
2017-05-27T06:38:14.654Z,6.30
2017-05-27T06:40:42.025Z,7.06
2017-05-27T06:43:08.645Z,4.68
2017-05-27T06:45:36.065Z,4.76
2017-05-27T06:48:03.442Z,5.24
2017-05-27T06:50:30.955Z,4.30
2017-05-27T06:52:58.320Z,5.24
2017-05-27T06:55:25.728Z,5.12
2017-05-27T06:57:53.152Z,4.72
2017-05-27T07:00:20.368Z,4.80
2017-05-27T07:02:47.702Z,4.82
2017-05-27T07:05:15.023Z,4.72
2017-05-27T07:07:42.366Z,4.30
2017-05-27T07:10:09.956Z,4.10
2017-05-27T07:12:37.169Z,5.62
2017-05-27T07:15:04.497Z,4.16
2017-05-27T07:17:31.872Z,4.46
2017-05-27T07:19:59.241Z,4.10
2017-05-27T07:22:26.578Z,3.84
2017-05-27T07:24:53.934Z,4.70
2017-05-27T07:27:20.522Z,4.04
2017-05-27T07:29:47.821Z,10.34
2017-05-27T07:32:15.076Z,3.82
2017-05-27T07:34:42.527Z,4.32
2017-05-27T07:37:10.014Z,4.16
2017-05-27T07:39:37.318Z,4.78
2017-05-27T07:42:04.673Z,3.98
2017-05-27T07:44:31.900Z,4.16
2017-05-27T07:46:59.213Z,3.38
2017-05-27T07:49:26.525Z,4.24
2017-05-27T07:51:53.862Z,3.80
2017-05-27T07:54:21.102Z,4.90
2017-05-27T07:56:48.461Z,5.40
2017-05-27T07:59:15.153Z,3.52
2017-05-27T08:01:42.585Z,4.44
2017-05-27T08:04:10.176Z,3.28
2017-05-27T08:06:37.626Z,3.20
2017-05-27T08:09:05.089Z,3.36
2017-05-27T08:11:32.873Z,3.34
2017-05-27T08:14:00.669Z,3.62
2017-05-27T08:16:28.299Z,3.52
2017-05-27T08:18:55.677Z,4.10
2017-05-27T08:21:22.961Z,3.34
2017-05-27T08:23:50.344Z,3.04
2017-05-27T08:26:17.575Z,2.58
2017-05-27T08:28:50.481Z,2.56
2017-05-27T08:31:17.795Z,2.44
2017-05-27T08:34:02.025Z,2.82
2017-05-27T08:36:29.978Z,4.86
2017-05-27T08:38:57.300Z,2.56
2017-05-27T08:41:24.485Z,5.66
2017-05-27T08:43:51.734Z,3.04
2017-05-27T08:46:19.072Z,2.60
2017-05-27T08:51:20.440Z,2.82
2017-05-27T08:53:47.883Z,3.04
2017-05-27T08:56:15.159Z,2.74
2017-05-27T08:58:42.500Z,2.70
2017-05-27T09:01:16.164Z,3.30
2017-05-27T09:03:43.457Z,3.06
2017-05-27T09:06:10.744Z,2.80
2017-05-27T09:08:38.086Z,3.48
2017-05-27T09:11:05.421Z,3.76
2017-05-27T09:13:38.729Z,3.32
2017-05-27T09:16:05.800Z,2.82
2017-05-27T09:18:33.159Z,4.14
2017-05-27T09:21:00.456Z,3.28
2017-05-27T09:23:27.796Z,3.06
2017-05-27T09:25:55.264Z,2.78
2017-05-27T09:28:22.581Z,3.26
2017-05-27T09:30:49.892Z,3.12
2017-05-27T09:33:17.168Z,2.80
2017-05-27T09:35:44.355Z,3.38
2017-05-27T09:38:11.686Z,3.30
2017-05-27T09:40:39.169Z,4.16
2017-05-27T09:43:06.748Z,2.70
2017-05-27T09:45:34.200Z,2.86
2017-05-27T09:48:01.513Z,2.90
2017-05-27T09:50:31.012Z,2.88
2017-05-27T09:52:58.355Z,4.58
2017-05-27T09:55:25.694Z,5.64
2017-05-27T09:57:53.017Z,2.94
2017-05-27T10:00:20.327Z,3.20
2017-05-27T10:02:47.644Z,3.44
2017-05-27T10:05:14.950Z,3.30
2017-05-27T10:07:42.124Z,2.94
2017-05-27T10:10:11.012Z,3.06
2017-05-27T10:12:45.118Z,2.92
2017-05-27T10:15:12.413Z,5.74
2017-05-27T10:17:39.730Z,3.92
2017-05-27T10:20:11.144Z,2.76
2017-05-27T10:22:38.437Z,3.56
2017-05-27T10:25:05.841Z,4.14
2017-05-27T10:27:33.160Z,2.72
2017-05-27T10:30:00.357Z,3.02
2017-05-27T10:32:27.568Z,4.56
2017-05-27T10:34:54.833Z,2.60
2017-05-27T10:37:22.380Z,3.20
2017-05-27T10:39:49.724Z,3.78
2017-05-27T10:42:17.061Z,3.36
2017-05-27T10:44:44.404Z,2.86
2017-05-27T10:47:11.829Z,3.16
2017-05-27T10:49:39.113Z,3.16
2017-05-27T10:52:06.287Z,2.70
2017-05-27T10:54:33.720Z,3.40
2017-05-27T10:57:01.092Z,5.26
2017-05-27T10:59:28.484Z,4.04
2017-05-27T11:01:55.670Z,3.28
2017-05-27T11:04:23.001Z,3.70
2017-05-27T11:06:51.090Z,3.16
2017-05-27T11:09:18.432Z,4.02
2017-05-27T11:11:45.700Z,3.38
2017-05-27T11:14:13.028Z,2.66
2017-05-27T11:16:40.321Z,3.14
2017-05-27T11:19:12.805Z,2.94
2017-05-27T11:21:40.133Z,2.92
2017-05-27T11:24:07.379Z,3.52
2017-05-27T11:26:34.701Z,2.86
2017-05-27T11:29:02.002Z,3.32
2017-05-27T11:31:29.326Z,2.90
2017-05-27T11:33:57.073Z,3.86
2017-05-27T11:36:23.561Z,5.02
2017-05-27T11:38:50.886Z,5.68
2017-05-27T11:41:18.208Z,4.26
2017-05-27T11:43:45.417Z,3.12
2017-05-27T11:46:12.736Z,3.70
2017-05-27T11:48:39.985Z,3.78
2017-05-27T11:51:07.301Z,2.58
2017-05-27T11:53:34.618Z,2.72
2017-05-27T11:56:08.925Z,2.84
2017-05-27T11:58:36.258Z,2.92
2017-05-27T12:01:05.374Z,2.72
2017-05-27T12:03:32.753Z,3.12
2017-05-27T12:06:00.089Z,6.02
2017-05-27T12:08:27.454Z,2.96
2017-05-27T12:10:54.753Z,3.16
2017-05-27T12:13:28.739Z,5.26
2017-05-27T12:15:56.089Z,3.04
2017-05-27T12:18:23.428Z,2.70
2017-05-27T12:20:50.713Z,2.88
2017-05-27T12:23:18.046Z,3.18
2017-05-27T12:25:45.404Z,3.06
2017-05-27T12:28:12.745Z,3.22
2017-05-27T12:30:40.061Z,2.80
2017-05-27T12:33:07.393Z,3.24
2017-05-27T12:35:34.757Z,3.58
2017-05-27T12:38:02.069Z,3.68
2017-05-27T12:40:28.572Z,4.90
2017-05-27T12:42:55.147Z,3.28
2017-05-27T12:45:22.453Z,3.34
2017-05-27T12:47:49.783Z,3.22
2017-05-27T12:50:17.107Z,3.96
2017-05-27T12:52:44.433Z,4.62
2017-05-27T12:55:11.725Z,3.48
2017-05-27T12:57:39.048Z,7.38
2017-05-27T13:00:06.364Z,3.90
2017-05-27T13:02:33.580Z,6.84
2017-05-27T13:05:00.876Z,3.48
2017-05-27T13:07:28.277Z,3.16
2017-05-27T13:09:55.596Z,4.10
2017-05-27T13:12:22.950Z,3.00
2017-05-27T13:14:50.183Z,2.60
2017-05-27T13:17:17.493Z,2.48
2017-05-27T13:19:44.832Z,3.44
2017-05-27T13:22:12.043Z,4.30
2017-05-27T13:24:39.332Z,3.30
2017-05-27T13:27:06.649Z,3.20
2017-05-27T13:29:33.972Z,3.56
2017-05-27T13:32:01.273Z,2.42
2017-05-27T13:34:28.562Z,4.40
2017-05-27T13:36:55.912Z,2.88
2017-05-27T13:39:23.228Z,3.66
2017-05-27T13:41:50.574Z,2.26
2017-05-27T13:44:17.914Z,2.22
2017-05-27T13:46:45.244Z,3.18
2017-05-27T13:49:12.561Z,3.68
2017-05-27T13:51:39.948Z,3.24
2017-05-27T13:54:07.279Z,2.34
2017-05-27T13:56:34.519Z,2.76
2017-05-27T13:59:01.822Z,4.98
2017-05-27T14:01:29.469Z,2.40
2017-05-27T14:03:56.791Z,2.54
2017-05-27T14:06:24.125Z,4.30
2017-05-27T14:08:51.564Z,3.72
2017-05-27T14:11:18.903Z,3.08
2017-05-27T14:13:46.206Z,2.60
2017-05-27T14:16:12.772Z,2.66
2017-05-27T14:18:40.073Z,2.80
2017-05-27T14:21:07.381Z,2.94
2017-05-27T14:23:34.735Z,2.90
2017-05-27T14:26:02.040Z,3.06
2017-05-27T14:28:29.350Z,4.04
2017-05-27T14:30:56.697Z,2.88
2017-05-27T14:33:24.013Z,3.04
2017-05-27T14:35:51.378Z,2.50
2017-05-27T14:38:27.939Z,4.20
2017-05-27T14:40:56.365Z,3.84
2017-05-27T14:43:23.706Z,3.50
2017-05-27T14:45:50.281Z,3.00
2017-05-27T14:48:17.806Z,3.00
2017-05-27T14:50:45.040Z,2.74
2017-05-27T14:53:12.337Z,2.82
2017-05-27T14:55:39.717Z,2.60
2017-05-27T14:58:07.072Z,3.06
2017-05-27T15:00:34.395Z,3.02
2017-05-27T15:03:01.842Z,4.42
2017-05-27T15:05:29.200Z,4.38
2017-05-27T15:07:56.401Z,3.58
2017-05-27T15:10:23.572Z,2.60
2017-05-27T15:12:50.909Z,2.80
2017-05-27T15:15:18.467Z,4.04
2017-05-27T15:17:45.764Z,5.56
2017-05-27T15:20:13.100Z,3.78
2017-05-27T15:22:40.421Z,7.92
2017-05-27T15:25:07.793Z,4.10
2017-05-27T15:27:35.139Z,3.40
2017-05-27T15:30:02.515Z,2.50
2017-05-27T15:32:29.846Z,2.92
2017-05-27T15:34:57.145Z,3.18
2017-05-27T15:37:24.461Z,3.94
2017-05-27T15:39:51.834Z,3.20
2017-05-27T15:42:19.220Z,3.00
2017-05-27T15:44:46.418Z,2.22
2017-05-27T15:47:13.781Z,29.62
2017-05-27T15:49:41.133Z,33.28
2017-05-27T15:52:08.467Z,11.82
2017-05-27T15:54:35.719Z,7.58
2017-05-27T15:57:02.970Z,9.36
2017-05-27T15:59:30.181Z,10.90
2017-05-27T16:01:57.533Z,3.18
2017-05-27T16:04:25.087Z,6.42
2017-05-27T16:06:52.318Z,3.42
2017-05-27T16:09:19.675Z,4.72
2017-05-27T16:11:46.973Z,2.32
2017-05-27T16:14:14.308Z,2.98
2017-05-27T16:16:41.605Z,3.16
2017-05-27T16:19:08.977Z,2.00
2017-05-27T16:21:36.282Z,4.58
2017-05-27T16:24:03.634Z,3.08
2017-05-27T16:26:30.987Z,3.04
2017-05-27T16:28:58.297Z,2.60
2017-05-27T16:31:25.846Z,2.80
2017-05-27T16:33:53.160Z,3.02
2017-05-27T16:36:19.611Z,2.58
2017-05-27T16:38:46.934Z,2.76
2017-05-27T16:41:14.122Z,3.08
2017-05-27T16:43:41.353Z,3.60
2017-05-27T16:46:08.661Z,2.98
2017-05-27T16:48:36.007Z,3.10
2017-05-27T16:51:03.309Z,3.40
2017-05-27T16:53:30.656Z,3.22
2017-05-27T16:55:57.970Z,2.52
2017-05-27T16:58:25.289Z,2.36
2017-05-27T17:00:54.986Z,2.52
2017-05-27T17:03:22.297Z,2.18
2017-05-27T17:05:49.621Z,3.36
2017-05-27T17:08:16.985Z,3.72
2017-05-27T17:10:44.273Z,2.58
2017-05-27T17:13:11.600Z,3.70
2017-05-27T17:15:38.908Z,3.78
2017-05-27T17:18:06.220Z,4.86
2017-05-27T17:20:33.606Z,3.86
2017-05-27T17:23:00.704Z,20.98
2017-05-27T17:25:28.058Z,2.82
2017-05-27T17:27:55.286Z,2.64
2017-05-27T17:30:22.671Z,2.72
2017-05-27T17:32:49.962Z,3.48
2017-05-27T17:35:17.257Z,3.48
2017-05-27T17:37:44.537Z,4.66
2017-05-27T17:40:11.954Z,2.52
2017-05-27T17:42:39.259Z,7.54
2017-05-27T17:45:06.502Z,3.82
2017-05-27T17:47:33.824Z,5.74
2017-05-27T17:50:01.036Z,3.90
2017-05-27T17:52:28.413Z,4.64
2017-05-27T17:54:55.882Z,3.44
2017-05-27T17:57:23.284Z,3.40
2017-05-27T17:59:50.552Z,4.40
2017-05-27T18:02:17.878Z,3.04
2017-05-27T18:04:45.197Z,2.96
2017-05-27T18:07:12.496Z,2.82
2017-05-27T18:09:39.056Z,2.88
2017-05-27T18:12:06.369Z,3.04
2017-05-27T18:14:33.837Z,2.92
2017-05-27T18:17:01.238Z,2.90
2017-05-27T18:19:28.610Z,3.50
2017-05-27T18:21:55.870Z,3.00
2017-05-27T18:24:23.092Z,2.62
2017-05-27T18:26:50.429Z,3.18
2017-05-27T18:29:17.764Z,2.72
2017-05-27T18:31:45.149Z,4.14
2017-05-27T18:34:12.445Z,2.90
2017-05-27T18:36:39.809Z,3.20
2017-05-27T18:39:07.165Z,3.10
2017-05-27T18:41:34.565Z,2.90
2017-05-27T18:44:01.769Z,3.22
2017-05-27T18:46:30.010Z,3.30
2017-05-27T18:48:57.313Z,4.84
2017-05-27T18:51:24.638Z,3.32
2017-05-27T18:53:52.022Z,3.36
2017-05-27T18:56:19.308Z,4.28
2017-05-27T18:58:46.629Z,3.26
2017-05-27T19:01:13.849Z,3.38
2017-05-27T19:03:41.137Z,3.58
2017-05-27T19:06:08.357Z,3.38
2017-05-27T19:08:35.756Z,3.62
2017-05-27T19:11:03.069Z,3.50
2017-05-27T19:13:30.408Z,3.84
2017-05-27T19:16:12.427Z,5.92
2017-05-27T19:18:39.770Z,3.04
2017-05-27T19:21:06.931Z,3.82
2017-05-27T19:23:34.309Z,3.44
2017-05-27T19:26:01.688Z,3.52
2017-05-27T19:28:29.655Z,3.38
2017-05-27T19:30:56.978Z,3.74
2017-05-27T19:33:24.337Z,5.52
2017-05-27T19:35:51.805Z,3.76
2017-05-27T19:38:19.234Z,3.18
2017-05-27T19:40:46.728Z,3.52
2017-05-27T19:43:14.065Z,3.90
2017-05-27T19:45:41.542Z,4.02
2017-05-27T19:48:08.883Z,3.68
2017-05-27T19:50:36.166Z,3.70
2017-05-27T19:53:03.694Z,4.94
2017-05-27T19:55:31.004Z,3.54
2017-05-27T19:57:58.481Z,4.42
2017-05-27T20:00:25.975Z,4.06
2017-05-27T20:02:53.320Z,3.62
2017-05-27T20:05:20.676Z,4.58
2017-05-27T20:07:48.143Z,4.38
2017-05-27T20:10:15.553Z,4.40
2017-05-27T20:12:43.097Z,3.84
2017-05-27T20:15:11.597Z,4.90
2017-05-27T20:17:38.842Z,5.64
2017-05-27T20:20:06.145Z,4.20
2017-05-27T20:22:33.449Z,8.32
2017-05-27T20:25:00.748Z,3.82
2017-05-27T20:27:28.014Z,5.54
2017-05-27T20:29:55.337Z,5.04
2017-05-27T20:32:22.665Z,4.60
2017-05-27T20:37:24.042Z,5.10
2017-05-27T20:39:51.369Z,4.46
2017-05-27T20:42:18.601Z,5.82
2017-05-27T20:44:46.125Z,4.62
2017-05-27T20:47:13.439Z,3.82
2017-05-27T20:49:40.748Z,4.32
2017-05-27T20:52:08.057Z,5.04
2017-05-27T20:54:35.332Z,3.86
2017-05-27T20:57:02.774Z,4.16
2017-05-27T20:59:30.181Z,4.30
2017-05-27T21:01:56.819Z,4.38
2017-05-27T21:04:24.038Z,6.32
2017-05-27T21:06:51.427Z,6.70
2017-05-27T21:09:18.681Z,4.56
2017-05-27T21:11:45.977Z,4.34
2017-05-27T21:14:13.294Z,4.10
2017-05-27T21:16:40.685Z,4.66
2017-05-27T21:19:08.113Z,4.68
2017-05-27T21:21:35.496Z,4.72
2017-05-27T21:24:02.948Z,4.86
2017-05-27T21:26:30.227Z,4.30
2017-05-27T21:28:57.617Z,5.86
2017-05-27T21:31:25.049Z,4.62
2017-05-27T21:33:52.143Z,4.36
2017-05-27T21:36:19.473Z,3.92
2017-05-27T21:38:46.587Z,4.68
2017-05-27T21:41:13.708Z,4.52
2017-05-27T21:43:41.288Z,3.90
2017-05-27T21:46:09.817Z,4.58
2017-05-27T21:48:37.108Z,5.72
2017-05-27T21:51:03.620Z,5.00
2017-05-27T21:53:30.786Z,4.08
2017-05-27T21:55:58.037Z,6.06
2017-05-27T21:58:25.148Z,4.70
2017-05-27T22:00:52.294Z,6.18
2017-05-27T22:03:19.377Z,4.20
2017-05-27T22:05:46.477Z,5.06
2017-05-27T22:08:13.541Z,4.74
2017-05-27T22:10:40.612Z,4.50
2017-05-27T22:13:07.764Z,5.54
2017-05-27T22:15:34.850Z,7.10
2017-05-27T22:18:02.804Z,4.60
2017-05-27T22:20:29.936Z,4.74
2017-05-27T22:22:57.108Z,4.40
2017-05-27T22:25:24.200Z,5.32
2017-05-27T22:27:51.273Z,4.48
2017-05-27T22:30:18.642Z,5.36
2017-05-27T22:32:45.841Z,4.62
2017-05-27T22:35:12.969Z,4.42
2017-05-27T22:37:40.134Z,4.72
2017-05-27T22:40:07.228Z,4.50
2017-05-27T22:42:34.302Z,4.38
2017-05-27T22:45:01.431Z,4.88
2017-05-27T22:47:28.509Z,7.64
2017-05-27T22:49:55.572Z,5.06
2017-05-27T22:52:22.642Z,4.66
2017-05-27T22:54:49.706Z,5.12
2017-05-27T22:57:16.041Z,5.04
2017-05-27T22:59:43.189Z,4.56
2017-05-27T23:02:10.285Z,4.42
2017-05-27T23:04:37.405Z,4.78
2017-05-27T23:07:04.654Z,5.92
2017-05-27T23:09:31.849Z,4.96
2017-05-27T23:11:58.944Z,4.28
2017-05-27T23:14:26.020Z,4.38
2017-05-27T23:16:53.097Z,4.84
2017-05-27T23:19:20.221Z,4.20
2017-05-27T23:21:47.344Z,4.50
2017-05-27T23:24:14.429Z,4.64
2017-05-27T23:26:41.853Z,4.34
2017-05-27T23:29:08.952Z,4.74
2017-05-27T23:31:35.297Z,4.94
2017-05-27T23:34:02.400Z,6.50
2017-05-27T23:36:29.644Z,4.50
2017-05-27T23:38:56.705Z,5.10
2017-05-27T23:41:23.873Z,5.82
2017-05-27T23:43:50.948Z,6.00
2017-05-27T23:46:18.013Z,7.50
2017-05-27T23:48:45.081Z,4.52
2017-05-27T23:51:11.421Z,5.08
2017-05-27T23:53:38.517Z,4.30
2017-05-27T23:58:39.288Z,4.98
